Time;durP1;ratioP1;P1;durP2;ratioP2;P2;SDS_P1;SDS_P2;PMS_P1;PMS_P2;Temp;Humidity;BMP_temperature;BMP_pressure;BME280_temperature;BME280_humidity;BME280_pressure;Samples;Min_cycle;Max_cycle;Signal;HPM_P1;HPM_P2
2022/08/03 00:01:17;;;;;;;;;;;20.80;93.40;;;;;;4985493;28;19934;-70
2022/08/03 00:03:43;;;;;;;;;;;20.80;93.70;;;;;;4986254;28;19918;-71
2022/08/03 00:06:08;;;;;;;;;;;21.00;94.00;;;;;;4985382;28;19930;-71
2022/08/03 00:08:34;;;;;;;;;;;21.20;93.70;;;;;;4995817;28;19918;-70
2022/08/03 00:10:59;;;;;;;;;;;21.20;93.50;;;;;;4982640;28;19917;-71
2022/08/03 00:13:25;;;;;;;;;;;21.00;94.00;;;;;;4994649;28;19917;-70
2022/08/03 00:15:51;;;;;;;;;;;20.90;94.50;;;;;;4991272;28;20149;-70
2022/08/03 00:18:16;;;;;;;;;;;20.80;94.90;;;;;;4992869;28;19913;-70
2022/08/03 00:20:42;;;;;;;;;;;20.70;95.20;;;;;;4989587;28;20612;-71
2022/08/03 00:23:07;;;;;;;;;;;20.50;94.30;;;;;;4992318;28;19961;-71
2022/08/03 00:25:34;;;;;;;;;;;20.50;95.00;;;;;;4990947;28;19980;-70
2022/08/03 00:27:59;;;;;;;;;;;20.50;95.00;;;;;;4991063;28;19918;-70
2022/08/03 00:30:25;;;;;;;;;;;20.40;95.50;;;;;;4989944;28;20017;-70
2022/08/03 00:32:50;;;;;;;;;;;20.40;95.60;;;;;;4991692;28;20009;-70
2022/08/03 00:35:16;;;;;;;;;;;20.50;95.90;;;;;;4991029;28;19928;-69
2022/08/03 00:37:41;;;;;;;;;;;20.60;96.10;;;;;;4991752;28;19961;-69
2022/08/03 00:40:07;;;;;;;;;;;20.70;96.20;;;;;;4990011;28;19921;-69
2022/08/03 00:42:33;;;;;;;;;;;20.80;95.40;;;;;;4990506;28;19918;-70
2022/08/03 00:44:58;;;;;;;;;;;20.70;95.80;;;;;;4987727;28;20100;-68
2022/08/03 00:47:24;;;;;;;;;;;20.80;95.30;;;;;;4992015;28;20431;-70
2022/08/03 00:49:49;;;;;;;;;;;20.80;95.30;;;;;;4988886;28;19972;-70
2022/08/03 00:52:15;;;;;;;;;;;20.90;95.00;;;;;;4990535;28;20349;-69
2022/08/03 00:54:41;;;;;;;;;;;21.00;94.80;;;;;;4990019;28;19951;-69
2022/08/03 00:57:06;;;;;;;;;;;21.00;94.40;;;;;;4989068;28;19918;-69
2022/08/03 00:59:32;;;;;;;;;;;21.00;94.50;;;;;;4990558;28;19922;-69
2022/08/03 01:01:58;;;;;;;;;;;21.00;94.50;;;;;;4990919;28;19964;-69
2022/08/03 01:04:23;;;;;;;;;;;20.90;94.70;;;;;;4989691;28;19917;-68
2022/08/03 01:06:55;;;;;;;;;;;20.90;94.90;;;;;;4989444;28;19967;-68
2022/08/03 01:09:39;;;;;;;;;;;21.00;94.10;;;;;;4989352;28;19989;-69
2022/08/03 01:12:25;;;;;;;;;;;21.00;93.80;;;;;;4990665;28;19921;-69
2022/08/03 01:14:56;;;;;;;;;;;21.10;92.60;;;;;;4979583;28;19917;-69
2022/08/03 01:17:24;;;;;;;;;;;21.10;92.10;;;;;;4990179;28;19945;-69
2022/08/03 01:19:55;;;;;;;;;;;21.10;92.00;;;;;;4989471;28;19928;-70
2022/08/03 01:22:55;;;;;;;;;;;21.10;91.20;;;;;;4990819;28;19948;-69
2022/08/03 01:25:27;;;;;;;;;;;21.20;90.50;;;;;;4905821;29;19970;-68
2022/08/03 01:27:52;;;;;;;;;;;21.20;90.60;;;;;;4974889;28;20159;-68
2022/08/03 01:30:17;;;;;;;;;;;21.40;90.00;;;;;;4986398;28;20379;-69
2022/08/03 01:32:47;;;;;;;;;;;21.40;89.50;;;;;;4988662;28;20349;-69
2022/08/03 01:35:15;;;;;;;;;;;21.40;89.10;;;;;;4986117;28;20532;-69
2022/08/03 01:37:48;;;;;;;;;;;21.40;90.20;;;;;;4988720;28;19967;-69
2022/08/03 01:40:14;;;;;;;;;;;21.40;88.90;;;;;;4985226;28;19938;-69
2022/08/03 01:42:41;;;;;;;;;;;21.40;89.00;;;;;;4991395;28;20020;-68
2022/08/03 01:45:08;;;;;;;;;;;21.40;89.30;;;;;;4986710;28;20388;-70
2022/08/03 01:47:34;;;;;;;;;;;21.40;89.20;;;;;;4987529;28;19914;-69
2022/08/03 01:50:00;;;;;;;;;;;21.30;89.70;;;;;;4984998;28;19925;-70
2022/08/03 01:52:27;;;;;;;;;;;21.40;89.90;;;;;;4987497;28;19924;-70
2022/08/03 01:54:52;;;;;;;;;;;21.40;89.00;;;;;;4984514;28;19922;-75
2022/08/03 01:57:18;;;;;;;;;;;21.50;87.90;;;;;;4981735;28;19922;-69
2022/08/03 01:59:45;;;;;;;;;;;21.50;87.70;;;;;;4999207;28;19922;-69
2022/08/03 02:02:11;;;;;;;;;;;21.50;87.90;;;;;;4987972;28;19918;-70
2022/08/03 02:04:37;;;;;;;;;;;21.50;87.70;;;;;;4997507;28;19918;-69
2022/08/03 02:07:03;;;;;;;;;;;21.50;87.90;;;;;;4987631;28;20166;-70
2022/08/03 02:09:29;;;;;;;;;;;21.50;88.70;;;;;;4998169;28;19913;-70
2022/08/03 02:11:56;;;;;;;;;;;21.40;89.00;;;;;;4987352;28;19945;-69
2022/08/03 02:14:22;;;;;;;;;;;21.40;88.60;;;;;;4986752;28;20083;-69
2022/08/03 02:16:48;;;;;;;;;;;21.40;88.20;;;;;;4987403;28;19964;-69
2022/08/03 02:19:15;;;;;;;;;;;21.50;88.70;;;;;;4999926;28;19928;-69
2022/08/03 02:21:42;;;;;;;;;;;21.50;88.00;;;;;;4987245;28;20333;-70
2022/08/03 02:24:08;;;;;;;;;;;21.60;88.30;;;;;;4994316;28;19918;-69
2022/08/03 02:26:35;;;;;;;;;;;21.50;88.70;;;;;;4986379;28;19925;-70
2022/08/03 02:29:04;;;;;;;;;;;21.50;88.70;;;;;;4999330;28;20009;-70
2022/08/03 02:31:31;;;;;;;;;;;21.60;86.90;;;;;;4986811;28;20504;-70
2022/08/03 02:34:01;;;;;;;;;;;21.60;87.30;;;;;;4989113;28;19918;-70
2022/08/03 02:36:27;;;;;;;;;;;21.50;87.90;;;;;;4986706;28;19925;-70
2022/08/03 02:38:54;;;;;;;;;;;21.60;86.40;;;;;;4999341;28;20016;-70
2022/08/03 02:41:23;;;;;;;;;;;21.60;86.60;;;;;;4987166;28;20604;-70
2022/08/03 02:43:50;;;;;;;;;;;21.60;85.70;;;;;;5006094;28;19972;-70
2022/08/03 02:46:17;;;;;;;;;;;21.60;86.50;;;;;;4985839;28;19913;-70
2022/08/03 02:48:43;;;;;;;;;;;21.50;87.40;;;;;;5001752;28;19917;-70
2022/08/03 02:51:09;;;;;;;;;;;21.40;87.70;;;;;;4988381;28;20009;-70
2022/08/03 02:53:35;;;;;;;;;;;21.30;86.90;;;;;;4992876;28;20390;-70
2022/08/03 02:56:01;;;;;;;;;;;21.30;87.60;;;;;;4984798;28;19917;-70
2022/08/03 02:58:27;;;;;;;;;;;21.50;86.00;;;;;;5001822;28;19918;-70
2022/08/03 03:00:53;;;;;;;;;;;21.50;85.30;;;;;;4989650;28;19926;-70
2022/08/03 03:03:20;;;;;;;;;;;21.50;85.60;;;;;;4988247;28;20324;-70
2022/08/03 03:05:46;;;;;;;;;;;21.40;85.50;;;;;;4991975;28;20551;-70
2022/08/03 03:08:12;;;;;;;;;;;21.40;85.40;;;;;;5001202;28;19929;-70
2022/08/03 03:10:38;;;;;;;;;;;21.40;86.70;;;;;;4992980;28;19918;-70
2022/08/03 03:13:04;;;;;;;;;;;21.20;86.90;;;;;;4998264;28;19917;-70
2022/08/03 03:15:30;;;;;;;;;;;21.10;87.40;;;;;;4992907;28;19918;-70
2022/08/03 03:17:57;;;;;;;;;;;21.10;88.20;;;;;;4994944;28;19914;-69
2022/08/03 03:20:24;;;;;;;;;;;21.10;88.60;;;;;;4987927;28;19918;-70
2022/08/03 03:22:49;;;;;;;;;;;21.20;88.10;;;;;;4987458;28;19925;-70
2022/08/03 03:25:15;;;;;;;;;;;21.30;88.40;;;;;;4990514;28;19918;-69
2022/08/03 03:27:41;;;;;;;;;;;21.20;88.00;;;;;;4986063;28;20257;-70
2022/08/03 03:30:07;;;;;;;;;;;21.30;88.00;;;;;;4995967;28;19913;-68
2022/08/03 03:32:32;;;;;;;;;;;21.30;86.40;;;;;;4986400;28;20391;-69
2022/08/03 03:34:58;;;;;;;;;;;21.30;86.80;;;;;;4984592;28;20257;-68
2022/08/03 03:37:25;;;;;;;;;;;21.30;86.30;;;;;;4985898;28;19982;-69
2022/08/03 03:39:52;;;;;;;;;;;21.20;86.80;;;;;;4999302;28;20012;-69
2022/08/03 03:42:17;;;;;;;;;;;21.20;87.00;;;;;;4985784;28;19933;-69
2022/08/03 03:44:43;;;;;;;;;;;21.10;87.40;;;;;;4988329;28;19914;-69
2022/08/03 03:47:08;;;;;;;;;;;21.00;88.50;;;;;;4985451;28;19913;-69
2022/08/03 03:49:35;;;;;;;;;;;21.00;88.90;;;;;;4987361;28;20456;-69
2022/08/03 03:52:00;;;;;;;;;;;21.10;88.50;;;;;;4985514;28;19921;-69
2022/08/03 03:54:25;;;;;;;;;;;21.00;89.40;;;;;;4986240;28;19917;-69
2022/08/03 03:56:51;;;;;;;;;;;20.90;89.60;;;;;;4984106;28;19918;-68
2022/08/03 03:59:16;;;;;;;;;;;20.90;88.50;;;;;;4987912;28;19918;-69
2022/08/03 04:01:42;;;;;;;;;;;21.10;87.60;;;;;;4984059;28;19925;-69
2022/08/03 04:12:25;;;;;;;;;;;21.20;85.50;;;;;;4985765;28;19937;-68
2022/08/03 04:14:52;;;;;;;;;;;21.30;85.10;;;;;;4993008;28;20269;-69
2022/08/03 04:17:18;;;;;;;;;;;21.30;85.20;;;;;;4984621;28;20011;-68
2022/08/03 04:19:46;;;;;;;;;;;21.20;84.90;;;;;;4992839;28;19961;-69
2022/08/03 04:22:13;;;;;;;;;;;21.30;83.80;;;;;;4985013;28;19952;-68
2022/08/03 04:24:40;;;;;;;;;;;21.30;83.60;;;;;;4986425;28;19918;-70
2022/08/03 04:27:08;;;;;;;;;;;21.30;83.30;;;;;;4985510;28;20258;-70
2022/08/03 04:29:34;;;;;;;;;;;21.40;83.20;;;;;;5004175;28;19921;-67
2022/08/03 04:32:00;;;;;;;;;;;21.40;82.40;;;;;;4977388;28;19925;-70
2022/08/03 04:34:26;;;;;;;;;;;21.40;82.60;;;;;;4994982;28;20352;-70
2022/08/03 04:36:56;;;;;;;;;;;21.40;82.50;;;;;;4983688;28;19949;-70
2022/08/03 04:39:26;;;;;;;;;;;21.40;81.70;;;;;;4991058;28;19925;-70
2022/08/03 04:41:56;;;;;;;;;;;21.50;81.50;;;;;;4984620;28;19925;-71
2022/08/03 04:44:22;;;;;;;;;;;21.50;81.20;;;;;;4994955;28;19922;-69
2022/08/03 04:46:48;;;;;;;;;;;21.50;81.00;;;;;;4984741;28;19914;-71
2022/08/03 04:49:14;;;;;;;;;;;21.40;81.80;;;;;;4991768;28;19917;-70
2022/08/03 04:51:39;;;;;;;;;;;21.60;80.50;;;;;;4986206;28;19924;-69
2022/08/03 04:54:06;;;;;;;;;;;21.50;81.10;;;;;;4992786;28;19992;-69
2022/08/03 04:56:33;;;;;;;;;;;21.50;81.00;;;;;;4987159;28;19961;-69
2022/08/03 04:58:58;;;;;;;;;;;21.50;80.70;;;;;;4989169;28;19925;-69
2022/08/03 05:01:24;;;;;;;;;;;21.60;80.70;;;;;;4992024;28;20289;-70
2022/08/03 05:03:50;;;;;;;;;;;21.70;80.90;;;;;;4994373;28;19925;-69
2022/08/03 05:06:15;;;;;;;;;;;21.70;79.40;;;;;;4992244;28;19960;-71
2022/08/03 05:08:41;;;;;;;;;;;21.80;79.70;;;;;;4990680;28;19972;-69
2022/08/03 05:11:06;;;;;;;;;;;21.90;79.20;;;;;;4994064;28;19948;-69
2022/08/03 05:13:32;;;;;;;;;;;21.90;79.30;;;;;;4992335;28;20507;-70
2022/08/03 05:15:57;;;;;;;;;;;21.90;78.80;;;;;;4995135;28;19928;-71
2022/08/03 05:18:22;;;;;;;;;;;21.90;79.10;;;;;;4989623;28;19918;-70
2022/08/03 05:20:48;;;;;;;;;;;22.00;79.20;;;;;;4996610;28;19930;-70
2022/08/03 05:23:13;;;;;;;;;;;22.10;78.80;;;;;;4994007;28;19914;-70
2022/08/03 05:25:39;;;;;;;;;;;22.10;78.60;;;;;;4994569;28;19921;-70
2022/08/03 05:28:05;;;;;;;;;;;22.20;78.20;;;;;;4988176;28;19913;-69
2022/08/03 05:30:30;;;;;;;;;;;22.20;78.30;;;;;;4993362;28;19921;-71
2022/08/03 05:32:55;;;;;;;;;;;22.30;78.50;;;;;;4987848;28;19921;-70
2022/08/03 05:35:21;;;;;;;;;;;22.40;78.60;;;;;;4987588;28;20328;-70
2022/08/03 05:37:46;;;;;;;;;;;22.40;78.60;;;;;;4988249;28;19945;-70
2022/08/03 05:40:12;;;;;;;;;;;22.60;78.60;;;;;;5004553;28;20633;-70
2022/08/03 05:42:38;;;;;;;;;;;22.70;78.80;;;;;;4999894;28;19996;-70
2022/08/03 05:45:13;;;;;;;;;;;22.80;78.60;;;;;;4994347;28;19967;-70
2022/08/03 05:47:39;;;;;;;;;;;22.90;79.30;;;;;;4988158;28;19937;-70
2022/08/03 05:50:05;;;;;;;;;;;22.90;78.60;;;;;;4998165;28;20276;-71
2022/08/03 05:52:30;;;;;;;;;;;23.00;78.40;;;;;;4987580;28;20455;-70
2022/08/03 05:54:55;;;;;;;;;;;23.20;77.90;;;;;;4990868;28;19914;-70
2022/08/03 05:57:21;;;;;;;;;;;23.20;77.70;;;;;;4987575;28;20361;-70
2022/08/03 05:59:46;;;;;;;;;;;23.30;77.70;;;;;;4994941;28;19925;-70
2022/08/03 06:02:12;;;;;;;;;;;23.40;77.70;;;;;;4986328;28;20108;-70
2022/08/03 06:04:37;;;;;;;;;;;23.40;77.40;;;;;;4999061;28;19926;-70
2022/08/03 06:07:02;;;;;;;;;;;23.50;77.90;;;;;;4987398;28;19918;-70
2022/08/03 06:09:28;;;;;;;;;;;23.60;77.70;;;;;;4996249;28;19917;-70
2022/08/03 06:11:54;;;;;;;;;;;23.70;77.60;;;;;;4988243;28;19917;-70
2022/08/03 06:14:19;;;;;;;;;;;23.80;77.30;;;;;;4993028;28;19914;-70
2022/08/03 06:16:44;;;;;;;;;;;23.90;77.40;;;;;;4987412;28;19964;-69
2022/08/03 06:19:10;;;;;;;;;;;24.10;76.20;;;;;;4998985;28;19918;-70
2022/08/03 06:21:35;;;;;;;;;;;24.20;75.10;;;;;;4990728;28;19920;-70
2022/08/03 06:24:01;;;;;;;;;;;24.30;75.70;;;;;;4994027;28;19924;-70
2022/08/03 06:26:27;;;;;;;;;;;24.30;74.20;;;;;;4985938;28;20663;-70
2022/08/03 06:28:53;;;;;;;;;;;24.40;74.90;;;;;;4997132;28;20361;-70
2022/08/03 06:31:19;;;;;;;;;;;24.50;74.60;;;;;;4991249;28;19921;-70
2022/08/03 06:33:44;;;;;;;;;;;24.50;74.80;;;;;;4993886;28;19917;-70
2022/08/03 06:36:10;;;;;;;;;;;24.70;73.10;;;;;;4988176;28;19914;-70
2022/08/03 06:38:35;;;;;;;;;;;24.80;72.90;;;;;;4994476;28;19925;-69
2022/08/03 06:41:00;;;;;;;;;;;24.90;73.10;;;;;;4989182;28;19917;-71
2022/08/03 06:43:26;;;;;;;;;;;24.90;73.30;;;;;;4999535;28;19918;-71
2022/08/03 06:45:51;;;;;;;;;;;25.00;72.60;;;;;;4994127;28;20039;-71
2022/08/03 06:48:17;;;;;;;;;;;25.10;72.10;;;;;;4986503;28;20340;-69
2022/08/03 06:50:43;;;;;;;;;;;25.20;71.90;;;;;;4986556;28;19918;-69
2022/08/03 06:53:09;;;;;;;;;;;25.20;70.90;;;;;;4986774;28;20484;-70
2022/08/03 06:55:34;;;;;;;;;;;25.20;70.40;;;;;;4987809;28;19918;-70
2022/08/03 06:57:59;;;;;;;;;;;25.30;69.90;;;;;;4986504;28;20020;-70
2022/08/03 07:00:26;;;;;;;;;;;25.50;70.00;;;;;;4989279;28;19959;-70
2022/08/03 07:02:52;;;;;;;;;;;25.50;69.90;;;;;;4984854;28;19922;-70
2022/08/03 07:05:17;;;;;;;;;;;25.50;69.20;;;;;;4989998;28;19915;-71
2022/08/03 07:07:43;;;;;;;;;;;25.60;69.60;;;;;;4986125;28;20039;-72
2022/08/03 07:10:10;;;;;;;;;;;25.70;69.50;;;;;;4989280;28;19918;-72
2022/08/03 07:12:36;;;;;;;;;;;25.80;68.80;;;;;;4986028;28;20549;-70
2022/08/03 07:15:02;;;;;;;;;;;25.80;69.70;;;;;;4986960;28;20013;-72
2022/08/03 07:17:29;;;;;;;;;;;25.90;68.80;;;;;;4984608;28;20395;-70
2022/08/03 07:19:54;;;;;;;;;;;26.00;68.90;;;;;;4990809;28;19921;-70
2022/08/03 07:22:19;;;;;;;;;;;26.10;68.20;;;;;;4984254;28;20255;-71
2022/08/03 07:24:46;;;;;;;;;;;26.20;68.10;;;;;;4988337;28;20405;-70
2022/08/03 07:27:11;;;;;;;;;;;26.30;67.90;;;;;;4986664;28;19943;-70
2022/08/03 07:29:37;;;;;;;;;;;26.40;67.20;;;;;;4989014;28;19941;-71
2022/08/03 07:32:03;;;;;;;;;;;26.50;67.20;;;;;;4987589;28;20368;-71
2022/08/03 07:34:28;;;;;;;;;;;26.50;67.20;;;;;;4990260;28;20605;-70
2022/08/03 07:36:54;;;;;;;;;;;26.70;66.50;;;;;;4985159;28;19932;-70
2022/08/03 07:39:19;;;;;;;;;;;26.80;65.90;;;;;;5003217;28;20020;-70
2022/08/03 07:41:45;;;;;;;;;;;26.80;65.90;;;;;;4990549;28;19917;-70
2022/08/03 07:44:10;;;;;;;;;;;26.80;65.60;;;;;;4988680;28;19918;-71
2022/08/03 07:46:36;;;;;;;;;;;26.80;66.00;;;;;;4991570;28;19918;-70
2022/08/03 07:49:01;;;;;;;;;;;26.90;65.10;;;;;;4993761;28;19927;-71
2022/08/03 07:51:27;;;;;;;;;;;26.90;65.60;;;;;;4987405;28;19924;-72
2022/08/03 07:53:54;;;;;;;;;;;27.00;64.70;;;;;;4995182;28;19917;-71
2022/08/03 07:56:20;;;;;;;;;;;26.90;65.10;;;;;;4985453;28;20270;-70
2022/08/03 07:58:45;;;;;;;;;;;27.20;64.40;;;;;;4991511;28;20559;-70
2022/08/03 08:01:10;;;;;;;;;;;27.30;64.10;;;;;;4986168;28;19997;-71
2022/08/03 08:03:36;;;;;;;;;;;27.20;63.70;;;;;;4985532;28;19961;-71
2022/08/03 08:06:01;;;;;;;;;;;27.20;63.40;;;;;;4983570;28;19922;-70
2022/08/03 08:08:27;;;;;;;;;;;27.30;63.00;;;;;;4985621;28;19921;-70
2022/08/03 08:10:53;;;;;;;;;;;27.40;61.10;;;;;;4996615;28;19968;-69
2022/08/03 08:13:18;;;;;;;;;;;27.40;61.80;;;;;;4985308;28;20708;-70
2022/08/03 08:15:43;;;;;;;;;;;27.40;61.00;;;;;;4992830;28;19940;-71
2022/08/03 08:18:09;;;;;;;;;;;27.50;60.90;;;;;;4935755;28;19913;-69
2022/08/03 08:20:36;;;;;;;;;;;27.30;61.20;;;;;;4985807;28;20004;-71
2022/08/03 08:23:03;;;;;;;;;;;27.40;60.10;;;;;;4985448;28;19913;-71
2022/08/03 08:25:29;;;;;;;;;;;27.60;60.00;;;;;;4992191;28;19945;-70
2022/08/03 08:27:55;;;;;;;;;;;27.60;59.30;;;;;;4985598;28;19953;-71
2022/08/03 08:30:21;;;;;;;;;;;27.70;58.50;;;;;;4994613;28;20348;-71
2022/08/03 08:32:47;;;;;;;;;;;27.70;58.00;;;;;;5003040;28;19917;-72
2022/08/03 08:35:13;;;;;;;;;;;27.80;58.80;;;;;;4977414;28;19922;-70
2022/08/03 08:37:39;;;;;;;;;;;27.80;58.80;;;;;;4987165;28;20381;-70
2022/08/03 08:40:05;;;;;;;;;;;27.90;58.70;;;;;;5005025;28;19922;-70
2022/08/03 08:42:31;;;;;;;;;;;28.10;57.50;;;;;;4989237;28;19922;-70
2022/08/03 08:44:56;;;;;;;;;;;28.10;57.30;;;;;;4993462;28;19918;-70
2022/08/03 08:47:23;;;;;;;;;;;28.30;56.60;;;;;;4988077;28;19929;-71
2022/08/03 08:49:52;;;;;;;;;;;28.00;57.10;;;;;;4989858;28;19918;-71
2022/08/03 08:52:19;;;;;;;;;;;28.00;56.90;;;;;;4990600;28;19918;-69
2022/08/03 08:54:45;;;;;;;;;;;28.10;57.70;;;;;;4991057;28;19941;-69
2022/08/03 08:57:10;;;;;;;;;;;28.30;55.60;;;;;;4991976;28;20380;-70
2022/08/03 08:59:36;;;;;;;;;;;28.40;55.40;;;;;;4999408;28;19926;-70
2022/08/03 09:02:01;;;;;;;;;;;28.50;55.10;;;;;;4979370;28;19957;-70
2022/08/03 09:04:28;;;;;;;;;;;28.50;55.70;;;;;;4992201;28;19918;-70
2022/08/03 09:06:54;;;;;;;;;;;28.20;56.00;;;;;;4987634;28;19925;-72
2022/08/03 09:09:19;;;;;;;;;;;27.90;56.70;;;;;;4994031;28;19917;-69
2022/08/03 09:11:46;;;;;;;;;;;28.40;56.50;;;;;;4995139;28;19947;-71
2022/08/03 09:14:12;;;;;;;;;;;28.70;55.70;;;;;;4990974;28;20412;-70
2022/08/03 09:16:37;;;;;;;;;;;28.60;55.70;;;;;;4995843;28;19918;-71
2022/08/03 09:19:12;;;;;;;;;;;28.70;56.00;;;;;;4991898;28;20021;-69
2022/08/03 09:21:42;;;;;;;;;;;28.80;55.60;;;;;;4995009;28;20372;-73
2022/08/03 09:24:07;;;;;;;;;;;28.90;55.70;;;;;;4989935;28;19918;-70
2022/08/03 09:26:33;;;;;;;;;;;29.10;55.50;;;;;;4993874;28;19925;-72
2022/08/03 09:29:00;;;;;;;;;;;29.10;55.30;;;;;;4991960;28;19928;-71
2022/08/03 09:31:36;;;;;;;;;;;29.20;55.50;;;;;;4998842;28;20300;-80
2022/08/03 09:34:05;;;;;;;;;;;29.20;54.10;;;;;;4987998;28;19944;-70
2022/08/03 09:36:35;;;;;;;;;;;29.30;54.30;;;;;;4997757;28;20357;-69
2022/08/03 09:39:05;;;;;;;;;;;29.30;53.80;;;;;;4999885;28;19925;-70
2022/08/03 09:41:31;;;;;;;;;;;29.30;53.40;;;;;;4984928;28;19917;-70
2022/08/03 09:43:56;;;;;;;;;;;29.30;53.60;;;;;;4987992;28;19913;-70
2022/08/03 09:46:22;;;;;;;;;;;29.30;53.90;;;;;;4986236;28;20431;-71
2022/08/03 09:48:47;;;;;;;;;;;29.40;54.00;;;;;;4987483;28;19913;-72
2022/08/03 09:51:14;;;;;;;;;;;29.50;54.10;;;;;;4999638;28;20435;-71
2022/08/03 09:53:43;;;;;;;;;;;29.60;54.10;;;;;;4987361;28;20373;-72
2022/08/03 09:56:09;;;;;;;;;;;29.70;53.00;;;;;;4986567;28;20007;-70
2022/08/03 09:58:43;;;;;;;;;;;29.70;52.70;;;;;;4987780;28;20407;-71
2022/08/03 10:01:08;;;;;;;;;;;29.70;53.60;;;;;;4970326;28;20440;-68
2022/08/03 10:03:36;;;;;;;;;;;29.60;52.60;;;;;;4987699;28;19997;-72
2022/08/03 10:06:24;;;;;;;;;;;29.80;53.30;;;;;;4994304;28;19960;-71
2022/08/03 10:09:03;;;;;;;;;;;29.80;53.20;;;;;;4987449;28;19914;-70
2022/08/03 10:11:29;;;;;;;;;;;29.80;52.50;;;;;;4976162;28;19949;-69
2022/08/03 10:13:55;;;;;;;;;;;29.80;53.10;;;;;;4987611;28;19936;-71
2022/08/03 10:16:20;;;;;;;;;;;29.90;52.70;;;;;;4990287;28;20540;-70
2022/08/03 10:18:46;;;;;;;;;;;29.90;52.80;;;;;;4987356;28;19910;-70
2022/08/03 10:21:12;;;;;;;;;;;30.10;53.20;;;;;;5000428;28;19968;-70
2022/08/03 10:23:39;;;;;;;;;;;30.20;52.00;;;;;;4987051;28;19916;-69
2022/08/03 10:26:06;;;;;;;;;;;30.10;52.40;;;;;;4986020;28;20432;-68
2022/08/03 10:28:36;;;;;;;;;;;30.30;51.90;;;;;;4986270;28;19914;-68
2022/08/03 10:31:03;;;;;;;;;;;30.30;52.70;;;;;;5001426;28;19964;-69
2022/08/03 10:33:33;;;;;;;;;;;30.30;52.40;;;;;;4987198;28;19960;-69
2022/08/03 10:35:59;;;;;;;;;;;30.40;52.30;;;;;;4983320;28;19922;-68
2022/08/03 10:38:28;;;;;;;;;;;30.60;52.40;;;;;;4979117;28;19972;-69
2022/08/03 10:40:54;;;;;;;;;;;30.80;52.10;;;;;;4978977;28;20308;-69
2022/08/03 10:43:26;;;;;;;;;;;31.10;52.50;;;;;;4979708;28;20403;-69
2022/08/03 10:45:51;;;;;;;;;;;31.20;52.60;;;;;;4981735;28;19940;-70
2022/08/03 10:48:17;;;;;;;;;;;31.20;50.90;;;;;;4977844;28;20532;-69
2022/08/03 10:50:43;;;;;;;;;;;31.10;50.60;;;;;;4979266;28;19929;-69
2022/08/03 10:53:08;;;;;;;;;;;31.30;51.90;;;;;;4979631;28;19915;-69
2022/08/03 10:58:42;;;;;;;;;;;31.50;51.20;;;;;;4981056;28;19941;-69
2022/08/03 11:01:08;;;;;;;;;;;31.40;50.60;;;;;;4975245;28;21082;-69
2022/08/03 11:03:53;;;;;;;;;;;32.00;49.70;;;;;;4985762;28;19914;-69
2022/08/03 11:06:21;;;;;;;;;;;32.10;49.40;;;;;;4977486;28;19914;-69
2022/08/03 11:08:47;;;;;;;;;;;32.10;49.00;;;;;;4985908;28;20020;-69
2022/08/03 11:11:15;;;;;;;;;;;33.00;48.60;;;;;;4986106;28;20005;-69
2022/08/03 11:13:55;;;;;;;;;;;32.80;47.90;;;;;;4997475;28;19918;-68
2022/08/03 11:16:31;;;;;;;;;;;32.70;48.20;;;;;;4979890;28;20004;-71
2022/08/03 11:18:56;;;;;;;;;;;33.80;46.50;;;;;;4985214;28;19921;-69
2022/08/03 11:21:42;;;;;;;;;;;33.00;46.70;;;;;;4985756;28;19972;-69
2022/08/03 11:24:07;;;;;;;;;;;33.40;46.90;;;;;;4982576;28;19935;-69
2022/08/03 11:26:33;;;;;;;;;;;34.10;46.10;;;;;;4982430;28;20365;-69
2022/08/03 11:29:17;;;;;;;;;;;34.20;45.50;;;;;;4984524;28;19925;-69
2022/08/03 11:31:44;;;;;;;;;;;33.30;45.80;;;;;;4984272;28;19922;-69
2022/08/03 11:34:10;;;;;;;;;;;33.60;45.80;;;;;;4984336;28;19991;-69
2022/08/03 11:36:55;;;;;;;;;;;34.30;45.20;;;;;;4982625;28;19925;-69
2022/08/03 11:39:20;;;;;;;;;;;34.20;45.20;;;;;;4983773;28;20028;-70
2022/08/03 11:41:45;;;;;;;;;;;33.50;46.00;;;;;;4986107;28;19961;-70
2022/08/03 11:44:31;;;;;;;;;;;33.10;46.20;;;;;;4983994;28;20020;-69
2022/08/03 11:46:57;;;;;;;;;;;32.90;45.90;;;;;;4982285;28;19918;-69
2022/08/03 11:49:23;;;;;;;;;;;33.20;45.90;;;;;;4983834;28;19917;-69
2022/08/03 11:51:52;;;;;;;;;;;33.20;45.30;;;;;;4983332;28;20285;-69
2022/08/03 11:54:18;;;;;;;;;;;32.80;46.10;;;;;;4983783;28;19916;-69
2022/08/03 11:56:47;;;;;;;;;;;33.80;45.10;;;;;;4983569;28;20229;-69
2022/08/03 11:59:13;;;;;;;;;;;34.30;45.50;;;;;;4983930;28;19930;-68
2022/08/03 12:01:39;;;;;;;;;;;34.10;45.70;;;;;;4981453;28;20270;-69
2022/08/03 12:04:05;;;;;;;;;;;34.70;44.60;;;;;;4983882;28;20075;-69
2022/08/03 12:06:53;;;;;;;;;;;34.20;44.70;;;;;;4981511;28;19917;-70
2022/08/03 12:09:16;;;;;;;;;;;33.70;44.70;;;;;;4982703;28;19957;-70
2022/08/03 12:11:41;;;;;;;;;;;35.00;43.30;;;;;;4982711;28;19957;-69
2022/08/03 12:14:07;;;;;;;;;;;34.60;43.30;;;;;;4980738;28;19913;-70
2022/08/03 12:16:32;;;;;;;;;;;34.80;43.00;;;;;;4989646;28;19917;-69
2022/08/03 12:18:59;;;;;;;;;;;34.50;43.10;;;;;;4985235;28;19969;-70
2022/08/03 12:21:24;;;;;;;;;;;34.40;43.10;;;;;;4992636;28;19925;-69
2022/08/03 12:23:50;;;;;;;;;;;34.40;44.00;;;;;;4985094;28;19914;-67
2022/08/03 12:26:15;;;;;;;;;;;33.60;45.90;;;;;;4986799;28;19917;-70
2022/08/03 12:28:47;;;;;;;;;;;35.00;43.30;;;;;;4984074;28;20372;-69
2022/08/03 12:31:13;;;;;;;;;;;34.50;42.90;;;;;;4989248;28;20369;-69
2022/08/03 12:33:55;;;;;;;;;;;35.30;42.50;;;;;;4965676;28;19925;-69
2022/08/03 12:36:20;;;;;;;;;;;35.40;41.70;;;;;;4987653;28;19914;-69
2022/08/03 12:38:53;;;;;;;;;;;35.60;42.20;;;;;;4984440;28;20818;-69
2022/08/03 12:41:25;;;;;;;;;;;35.10;42.00;;;;;;4968980;28;20674;-68
2022/08/03 12:43:51;;;;;;;;;;;34.30;43.60;;;;;;4973472;28;20188;-69
2022/08/03 12:46:18;;;;;;;;;;;34.40;43.50;;;;;;4976257;28;19918;-69
2022/08/03 12:49:02;;;;;;;;;;;35.20;42.50;;;;;;4976654;28;19910;-69
2022/08/03 12:51:29;;;;;;;;;;;34.80;43.50;;;;;;4977303;28;20370;-68
2022/08/03 12:53:55;;;;;;;;;;;34.30;43.50;;;;;;4976467;28;19914;-69
2022/08/03 12:56:21;;;;;;;;;;;34.20;44.60;;;;;;4974220;28;19969;-68
2022/08/03 12:58:49;;;;;;;;;;;34.90;45.10;;;;;;4978626;28;19949;-72
2022/08/03 13:01:15;;;;;;;;;;;34.80;42.90;;;;;;4984354;28;19933;-70
2022/08/03 13:03:41;;;;;;;;;;;35.50;42.50;;;;;;4982068;28;19922;-69
2022/08/03 13:06:10;;;;;;;;;;;34.60;43.60;;;;;;4985871;28;19918;-69
2022/08/03 13:08:36;;;;;;;;;;;35.30;42.90;;;;;;4982603;28;20324;-68
2022/08/03 13:11:16;;;;;;;;;;;35.30;43.40;;;;;;4984288;28;20532;-68
2022/08/03 13:13:42;;;;;;;;;;;35.30;43.00;;;;;;4982174;28;19924;-69
2022/08/03 13:16:07;;;;;;;;;;;35.30;43.00;;;;;;4986525;28;19918;-68
2022/08/03 13:18:32;;;;;;;;;;;36.40;42.40;;;;;;4983746;28;19929;-68
2022/08/03 13:20:58;;;;;;;;;;;37.20;40.70;;;;;;4986714;28;20009;-69
2022/08/03 13:23:23;;;;;;;;;;;35.50;41.20;;;;;;4989062;28;19968;-68
2022/08/03 13:25:49;;;;;;;;;;;35.50;41.30;;;;;;4994041;28;20028;-68
2022/08/03 13:28:14;;;;;;;;;;;36.80;41.60;;;;;;4988525;28;19983;-68
2022/08/03 13:30:39;;;;;;;;;;;37.40;39.80;;;;;;4994982;28;20353;-68
2022/08/03 13:33:05;;;;;;;;;;;37.10;39.50;;;;;;4991222;28;19918;-68
2022/08/03 13:35:30;;;;;;;;;;;37.50;39.20;;;;;;5006218;28;20187;-68
2022/08/03 13:37:56;;;;;;;;;;;36.60;40.20;;;;;;4980468;28;19921;-69
2022/08/03 13:40:21;;;;;;;;;;;36.50;39.60;;;;;;4994336;28;19922;-69
2022/08/03 13:42:47;;;;;;;;;;;36.60;40.90;;;;;;4993775;28;20424;-68
2022/08/03 13:45:12;;;;;;;;;;;36.20;40.30;;;;;;5006468;28;20376;-69
2022/08/03 13:47:37;;;;;;;;;;;36.60;40.60;;;;;;4981878;28;19937;-69
2022/08/03 13:50:03;;;;;;;;;;;36.30;40.30;;;;;;4986928;28;19945;-69
2022/08/03 13:52:29;;;;;;;;;;;36.40;40.70;;;;;;4984738;28;20440;-69
2022/08/03 13:54:55;;;;;;;;;;;36.90;39.70;;;;;;4987825;28;19921;-68
2022/08/03 13:57:20;;;;;;;;;;;36.10;40.20;;;;;;4984922;28;20324;-71
2022/08/03 13:59:46;;;;;;;;;;;35.90;41.00;;;;;;4988533;28;19930;-67
2022/08/03 14:02:11;;;;;;;;;;;35.60;40.90;;;;;;4981382;28;19918;-69
2022/08/03 14:04:36;;;;;;;;;;;36.40;40.60;;;;;;4986136;28;19914;-70
2022/08/03 14:07:02;;;;;;;;;;;35.70;40.20;;;;;;4984955;28;19922;-69
2022/08/03 14:09:27;;;;;;;;;;;35.90;40.80;;;;;;4986159;28;19914;-69
2022/08/03 14:11:53;;;;;;;;;;;37.30;40.50;;;;;;4984976;28;20352;-70
2022/08/03 14:14:18;;;;;;;;;;;36.10;39.70;;;;;;4986418;28;19910;-73
2022/08/03 14:16:43;;;;;;;;;;;36.30;40.60;;;;;;4984910;28;20293;-68
2022/08/03 14:19:09;;;;;;;;;;;36.70;39.70;;;;;;4986941;28;19922;-68
2022/08/03 14:21:34;;;;;;;;;;;37.30;39.80;;;;;;4988167;28;19961;-69
2022/08/03 14:24:00;;;;;;;;;;;37.90;39.30;;;;;;4984230;28;20000;-68
2022/08/03 14:26:26;;;;;;;;;;;38.10;38.60;;;;;;4985824;28;19948;-68